sensor_id;sensor_type;location;lat;lon;timestamp;P1;durP1;ratioP1;P2;durP2;ratioP2
19575;SDS011;41589;51.196;7.074;2022-08-19T00:03:08;2.87;;;2.67;;
19575;SDS011;41589;51.196;7.074;2022-08-19T00:08:09;2.97;;;2.80;;
19575;SDS011;41589;51.196;7.074;2022-08-19T00:13:09;2.47;;;2.37;;
19575;SDS011;41589;51.196;7.074;2022-08-19T00:18:10;2.60;;;2.40;;
19575;SDS011;41589;51.196;7.074;2022-08-19T00:23:11;2.63;;;2.43;;
19575;SDS011;41589;51.196;7.074;2022-08-19T00:28:11;2.83;;;2.63;;
19575;SDS011;41589;51.196;7.074;2022-08-19T00:33:12;2.70;;;2.60;;
19575;SDS011;41589;51.196;7.074;2022-08-19T00:38:13;3.50;;;3.30;;
19575;SDS011;41589;51.196;7.074;2022-08-19T00:43:14;4.13;;;3.83;;
19575;SDS011;41589;51.196;7.074;2022-08-19T00:48:21;3.50;;;3.30;;
19575;SDS011;41589;51.196;7.074;2022-08-19T00:53:24;4.70;;;4.40;;
19575;SDS011;41589;51.196;7.074;2022-08-19T00:58:30;4.13;;;3.83;;
19575;SDS011;41589;51.196;7.074;2022-08-19T01:03:33;3.90;;;3.60;;
19575;SDS011;41589;51.196;7.074;2022-08-19T01:08:33;3.87;;;3.57;;
19575;SDS011;41589;51.196;7.074;2022-08-19T01:13:34;3.77;;;3.47;;
19575;SDS011;41589;51.196;7.074;2022-08-19T01:18:38;4.00;;;3.70;;
19575;SDS011;41589;51.196;7.074;2022-08-19T01:23:41;4.60;;;4.20;;
19575;SDS011;41589;51.196;7.074;2022-08-19T01:28:43;4.10;;;3.80;;
19575;SDS011;41589;51.196;7.074;2022-08-19T01:33:45;4.40;;;4.10;;
19575;SDS011;41589;51.196;7.074;2022-08-19T01:38:46;3.70;;;3.47;;
19575;SDS011;41589;51.196;7.074;2022-08-19T01:43:49;4.17;;;3.87;;
19575;SDS011;41589;51.196;7.074;2022-08-19T01:48:54;4.70;;;4.40;;
19575;SDS011;41589;51.196;7.074;2022-08-19T01:53:54;4.23;;;3.93;;
19575;SDS011;41589;51.196;7.074;2022-08-19T01:58:56;4.90;;;4.60;;
19575;SDS011;41589;51.196;7.074;2022-08-19T02:04:00;3.27;;;3.07;;
19575;SDS011;41589;51.196;7.074;2022-08-19T02:09:00;3.27;;;3.00;;
19575;SDS011;41589;51.196;7.074;2022-08-19T02:14:03;3.87;;;3.67;;
19575;SDS011;41589;51.196;7.074;2022-08-19T02:19:05;4.20;;;4.00;;
19575;SDS011;41589;51.196;7.074;2022-08-19T02:24:06;3.80;;;3.60;;
19575;SDS011;41589;51.196;7.074;2022-08-19T02:29:07;4.57;;;4.27;;
19575;SDS011;41589;51.196;7.074;2022-08-19T02:34:07;4.10;;;3.80;;
19575;SDS011;41589;51.196;7.074;2022-08-19T02:39:09;3.30;;;3.10;;
19575;SDS011;41589;51.196;7.074;2022-08-19T02:44:10;3.97;;;3.77;;
19575;SDS011;41589;51.196;7.074;2022-08-19T02:49:10;3.97;;;3.63;;
19575;SDS011;41589;51.196;7.074;2022-08-19T02:54:11;3.60;;;3.37;;
19575;SDS011;41589;51.196;7.074;2022-08-19T02:59:12;3.17;;;2.97;;
19575;SDS011;41589;51.196;7.074;2022-08-19T03:04:13;3.30;;;3.10;;
19575;SDS011;41589;51.196;7.074;2022-08-19T03:09:16;3.43;;;3.00;;
19575;SDS011;41589;51.196;7.074;2022-08-19T03:14:17;3.33;;;3.13;;
19575;SDS011;41589;51.196;7.074;2022-08-19T03:19:18;3.37;;;3.17;;
19575;SDS011;41589;51.196;7.074;2022-08-19T03:24:21;3.40;;;3.13;;
19575;SDS011;41589;51.196;7.074;2022-08-19T03:29:21;2.93;;;2.70;;
19575;SDS011;41589;51.196;7.074;2022-08-19T03:34:23;3.27;;;3.07;;
19575;SDS011;41589;51.196;7.074;2022-08-19T03:39:27;4.07;;;3.80;;
19575;SDS011;41589;51.196;7.074;2022-08-19T03:44:28;4.10;;;3.90;;
19575;SDS011;41589;51.196;7.074;2022-08-19T03:49:30;4.50;;;4.20;;
19575;SDS011;41589;51.196;7.074;2022-08-19T03:54:32;4.83;;;4.43;;
19575;SDS011;41589;51.196;7.074;2022-08-19T03:59:34;4.93;;;4.63;;
19575;SDS011;41589;51.196;7.074;2022-08-19T04:04:39;3.77;;;3.57;;
19575;SDS011;41589;51.196;7.074;2022-08-19T04:09:42;4.00;;;3.80;;
19575;SDS011;41589;51.196;7.074;2022-08-19T04:14:42;3.57;;;3.37;;
19575;SDS011;41589;51.196;7.074;2022-08-19T04:19:43;5.33;;;4.93;;
19575;SDS011;41589;51.196;7.074;2022-08-19T04:24:43;5.23;;;4.83;;
19575;SDS011;41589;51.196;7.074;2022-08-19T04:29:44;4.60;;;4.30;;
19575;SDS011;41589;51.196;7.074;2022-08-19T04:34:44;5.77;;;5.30;;
19575;SDS011;41589;51.196;7.074;2022-08-19T04:39:44;6.03;;;5.63;;
19575;SDS011;41589;51.196;7.074;2022-08-19T04:45:04;5.80;;;5.40;;
19575;SDS011;41589;51.196;7.074;2022-08-19T04:50:07;6.40;;;5.90;;
19575;SDS011;41589;51.196;7.074;2022-08-19T04:55:11;6.50;;;5.97;;
19575;SDS011;41589;51.196;7.074;2022-08-19T05:00:12;6.43;;;5.93;;
19575;SDS011;41589;51.196;7.074;2022-08-19T05:05:13;6.37;;;5.97;;
19575;SDS011;41589;51.196;7.074;2022-08-19T05:10:14;7.33;;;6.83;;
19575;SDS011;41589;51.196;7.074;2022-08-19T05:15:14;7.50;;;6.90;;
19575;SDS011;41589;51.196;7.074;2022-08-19T05:20:14;6.87;;;6.27;;
19575;SDS011;41589;51.196;7.074;2022-08-19T05:25:33;7.00;;;6.40;;
19575;SDS011;41589;51.196;7.074;2022-08-19T05:30:34;7.17;;;6.67;;
19575;SDS011;41589;51.196;7.074;2022-08-19T05:35:35;6.90;;;6.40;;
19575;SDS011;41589;51.196;7.074;2022-08-19T05:40:37;7.30;;;6.60;;
19575;SDS011;41589;51.196;7.074;2022-08-19T05:45:39;7.10;;;6.60;;
19575;SDS011;41589;51.196;7.074;2022-08-19T05:50:40;8.37;;;7.67;;
19575;SDS011;41589;51.196;7.074;2022-08-19T05:55:41;7.67;;;7.07;;
19575;SDS011;41589;51.196;7.074;2022-08-19T06:00:42;9.57;;;8.87;;
19575;SDS011;41589;51.196;7.074;2022-08-19T06:05:44;9.37;;;8.57;;
19575;SDS011;41589;51.196;7.074;2022-08-19T06:10:44;10.30;;;9.50;;
19575;SDS011;41589;51.196;7.074;2022-08-19T06:15:45;9.80;;;9.10;;
19575;SDS011;41589;51.196;7.074;2022-08-19T06:20:46;11.37;;;10.47;;
19575;SDS011;41589;51.196;7.074;2022-08-19T06:25:47;11.17;;;10.37;;
19575;SDS011;41589;51.196;7.074;2022-08-19T06:30:47;10.23;;;9.43;;
19575;SDS011;41589;51.196;7.074;2022-08-19T06:35:48;10.53;;;9.83;;
19575;SDS011;41589;51.196;7.074;2022-08-19T06:40:48;9.60;;;8.80;;
19575;SDS011;41589;51.196;7.074;2022-08-19T06:45:48;9.60;;;8.90;;
19575;SDS011;41589;51.196;7.074;2022-08-19T06:50:52;11.67;;;10.77;;
19575;SDS011;41589;51.196;7.074;2022-08-19T06:55:53;12.60;;;11.70;;
19575;SDS011;41589;51.196;7.074;2022-08-19T07:01:01;13.27;;;12.17;;
19575;SDS011;41589;51.196;7.074;2022-08-19T07:06:07;13.63;;;12.57;;
19575;SDS011;41589;51.196;7.074;2022-08-19T07:11:11;13.20;;;12.17;;
19575;SDS011;41589;51.196;7.074;2022-08-19T07:16:15;14.03;;;13.03;;
19575;SDS011;41589;51.196;7.074;2022-08-19T07:21:23;14.13;;;13.13;;
19575;SDS011;41589;51.196;7.074;2022-08-19T07:26:30;13.90;;;12.77;;
19575;SDS011;41589;51.196;7.074;2022-08-19T07:31:33;13.87;;;12.87;;
19575;SDS011;41589;51.196;7.074;2022-08-19T07:36:37;13.27;;;12.27;;
19575;SDS011;41589;51.196;7.074;2022-08-19T07:41:40;13.47;;;12.47;;
19575;SDS011;41589;51.196;7.074;2022-08-19T07:46:43;13.23;;;12.13;;
19575;SDS011;41589;51.196;7.074;2022-08-19T07:51:47;12.67;;;11.83;;
19575;SDS011;41589;51.196;7.074;2022-08-19T07:56:49;14.40;;;13.30;;
19575;SDS011;41589;51.196;7.074;2022-08-19T08:01:50;13.90;;;12.80;;
19575;SDS011;41589;51.196;7.074;2022-08-19T08:06:52;14.00;;;12.87;;
19575;SDS011;41589;51.196;7.074;2022-08-19T08:12:14;14.93;;;13.83;;
19575;SDS011;41589;51.196;7.074;2022-08-19T08:17:20;14.73;;;13.63;;
19575;SDS011;41589;51.196;7.074;2022-08-19T08:22:23;15.57;;;14.37;;
19575;SDS011;41589;51.196;7.074;2022-08-19T08:27:43;16.37;;;14.87;;
19575;SDS011;41589;51.196;7.074;2022-08-19T08:32:46;16.33;;;15.00;;
19575;SDS011;41589;51.196;7.074;2022-08-19T08:37:47;15.73;;;14.63;;
19575;SDS011;41589;51.196;7.074;2022-08-19T08:42:52;14.83;;;13.73;;
19575;SDS011;41589;51.196;7.074;2022-08-19T08:48:02;15.93;;;14.63;;
19575;SDS011;41589;51.196;7.074;2022-08-19T08:53:14;13.43;;;12.43;;
19575;SDS011;41589;51.196;7.074;2022-08-19T08:58:20;13.30;;;12.33;;
19575;SDS011;41589;51.196;7.074;2022-08-19T09:03:29;12.57;;;11.70;;
19575;SDS011;41589;51.196;7.074;2022-08-19T09:08:38;12.70;;;11.70;;
19575;SDS011;41589;51.196;7.074;2022-08-19T09:19:15;10.47;;;9.57;;
19575;SDS011;41589;51.196;7.074;2022-08-19T09:24:17;9.50;;;8.80;;
19575;SDS011;41589;51.196;7.074;2022-08-19T09:29:18;9.13;;;8.43;;
19575;SDS011;41589;51.196;7.074;2022-08-19T09:34:18;9.07;;;8.17;;
19575;SDS011;41589;51.196;7.074;2022-08-19T09:39:20;8.97;;;8.37;;
19575;SDS011;41589;51.196;7.074;2022-08-19T09:44:21;9.47;;;8.77;;
19575;SDS011;41589;51.196;7.074;2022-08-19T09:49:24;7.67;;;7.17;;
19575;SDS011;41589;51.196;7.074;2022-08-19T09:54:25;7.30;;;6.80;;
19575;SDS011;41589;51.196;7.074;2022-08-19T09:59:26;7.80;;;7.20;;
19575;SDS011;41589;51.196;7.074;2022-08-19T10:04:43;9.30;;;8.70;;
19575;SDS011;41589;51.196;7.074;2022-08-19T10:10:03;12.00;;;11.17;;
19575;SDS011;41589;51.196;7.074;2022-08-19T10:15:09;10.80;;;10.00;;
19575;SDS011;41589;51.196;7.074;2022-08-19T10:20:19;6.70;;;6.10;;
19575;SDS011;41589;51.196;7.074;2022-08-19T10:25:41;8.07;;;7.47;;
19575;SDS011;41589;51.196;7.074;2022-08-19T10:30:45;8.03;;;7.43;;
19575;SDS011;41589;51.196;7.074;2022-08-19T10:43:20;8.70;;;8.00;;
19575;SDS011;41589;51.196;7.074;2022-08-19T10:48:26;8.93;;;8.33;;
19575;SDS011;41589;51.196;7.074;2022-08-19T10:53:26;7.63;;;7.10;;
19575;SDS011;41589;51.196;7.074;2022-08-19T10:58:27;7.73;;;7.13;;
19575;SDS011;41589;51.196;7.074;2022-08-19T11:03:30;6.70;;;6.30;;
19575;SDS011;41589;51.196;7.074;2022-08-19T11:08:32;7.07;;;6.47;;
19575;SDS011;41589;51.196;7.074;2022-08-19T11:13:39;7.53;;;6.83;;
19575;SDS011;41589;51.196;7.074;2022-08-19T11:18:42;7.30;;;6.80;;
19575;SDS011;41589;51.196;7.074;2022-08-19T11:23:49;6.83;;;6.43;;
19575;SDS011;41589;51.196;7.074;2022-08-19T11:40:04;6.47;;;6.07;;
19575;SDS011;41589;51.196;7.074;2022-08-19T11:45:26;6.43;;;5.97;;
19575;SDS011;41589;51.196;7.074;2022-08-19T11:55:44;6.70;;;6.20;;
19575;SDS011;41589;51.196;7.074;2022-08-19T12:00:45;6.13;;;5.63;;
19575;SDS011;41589;51.196;7.074;2022-08-19T12:05:46;6.03;;;5.43;;
19575;SDS011;41589;51.196;7.074;2022-08-19T12:10:46;4.50;;;4.20;;
19575;SDS011;41589;51.196;7.074;2022-08-19T12:15:47;4.67;;;4.27;;
19575;SDS011;41589;51.196;7.074;2022-08-19T12:20:50;3.70;;;3.50;;
19575;SDS011;41589;51.196;7.074;2022-08-19T12:25:51;3.27;;;3.07;;
19575;SDS011;41589;51.196;7.074;2022-08-19T12:30:52;3.30;;;3.00;;
19575;SDS011;41589;51.196;7.074;2022-08-19T12:35:52;3.33;;;3.13;;
19575;SDS011;41589;51.196;7.074;2022-08-19T12:40:53;2.83;;;2.63;;
19575;SDS011;41589;51.196;7.074;2022-08-19T12:45:53;3.30;;;3.10;;
19575;SDS011;41589;51.196;7.074;2022-08-19T12:50:54;3.50;;;3.20;;
19575;SDS011;41589;51.196;7.074;2022-08-19T12:55:55;4.63;;;3.00;;
19575;SDS011;41589;51.196;7.074;2022-08-19T13:00:56;3.37;;;2.80;;
19575;SDS011;41589;51.196;7.074;2022-08-19T13:05:57;3.30;;;3.00;;
19575;SDS011;41589;51.196;7.074;2022-08-19T13:10:57;3.30;;;3.10;;
19575;SDS011;41589;51.196;7.074;2022-08-19T13:15:59;3.57;;;3.07;;
19575;SDS011;41589;51.196;7.074;2022-08-19T13:21:05;2.83;;;2.63;;
19575;SDS011;41589;51.196;7.074;2022-08-19T13:26:08;2.87;;;2.70;;
19575;SDS011;41589;51.196;7.074;2022-08-19T13:31:11;3.10;;;2.90;;
19575;SDS011;41589;51.196;7.074;2022-08-19T13:36:34;2.97;;;2.57;;
19575;SDS011;41589;51.196;7.074;2022-08-19T13:41:36;2.53;;;2.43;;
19575;SDS011;41589;51.196;7.074;2022-08-19T13:46:38;2.20;;;2.10;;
19575;SDS011;41589;51.196;7.074;2022-08-19T13:51:39;2.90;;;2.70;;
19575;SDS011;41589;51.196;7.074;2022-08-19T13:56:41;2.97;;;2.77;;
19575;SDS011;41589;51.196;7.074;2022-08-19T14:01:42;2.30;;;2.20;;
19575;SDS011;41589;51.196;7.074;2022-08-19T14:06:45;2.80;;;2.60;;
19575;SDS011;41589;51.196;7.074;2022-08-19T14:11:48;3.57;;;1.90;;
19575;SDS011;41589;51.196;7.074;2022-08-19T14:16:51;2.57;;;2.37;;
19575;SDS011;41589;51.196;7.074;2022-08-19T14:21:52;2.30;;;2.20;;
19575;SDS011;41589;51.196;7.074;2022-08-19T14:26:52;2.57;;;2.37;;
19575;SDS011;41589;51.196;7.074;2022-08-19T14:31:52;1.90;;;1.80;;
19575;SDS011;41589;51.196;7.074;2022-08-19T14:36:53;2.47;;;2.00;;
19575;SDS011;41589;51.196;7.074;2022-08-19T14:41:53;1.80;;;1.70;;
19575;SDS011;41589;51.196;7.074;2022-08-19T14:46:54;1.57;;;1.47;;
19575;SDS011;41589;51.196;7.074;2022-08-19T14:51:54;2.03;;;1.83;;
19575;SDS011;41589;51.196;7.074;2022-08-19T14:56:55;1.87;;;1.77;;
19575;SDS011;41589;51.196;7.074;2022-08-19T15:01:55;1.77;;;1.60;;
19575;SDS011;41589;51.196;7.074;2022-08-19T15:06:56;1.60;;;1.50;;
19575;SDS011;41589;51.196;7.074;2022-08-19T15:11:56;1.90;;;1.80;;
19575;SDS011;41589;51.196;7.074;2022-08-19T15:16:59;2.70;;;1.50;;
19575;SDS011;41589;51.196;7.074;2022-08-19T15:21:59;1.53;;;1.43;;
19575;SDS011;41589;51.196;7.074;2022-08-19T15:27:00;1.40;;;1.30;;
19575;SDS011;41589;51.196;7.074;2022-08-19T15:32:00;1.50;;;1.40;;
19575;SDS011;41589;51.196;7.074;2022-08-19T15:37:01;2.70;;;1.80;;
19575;SDS011;41589;51.196;7.074;2022-08-19T15:42:03;2.53;;;1.53;;
19575;SDS011;41589;51.196;7.074;2022-08-19T15:47:04;1.80;;;1.40;;
19575;SDS011;41589;51.196;7.074;2022-08-19T15:52:04;1.77;;;1.53;;
19575;SDS011;41589;51.196;7.074;2022-08-19T15:57:06;1.43;;;1.33;;
19575;SDS011;41589;51.196;7.074;2022-08-19T16:02:23;1.50;;;1.07;;
19575;SDS011;41589;51.196;7.074;2022-08-19T16:07:44;1.50;;;1.30;;
19575;SDS011;41589;51.196;7.074;2022-08-19T16:12:44;1.93;;;1.20;;
19575;SDS011;41589;51.196;7.074;2022-08-19T16:17:45;1.30;;;1.20;;
19575;SDS011;41589;51.196;7.074;2022-08-19T16:22:46;1.37;;;1.27;;
19575;SDS011;41589;51.196;7.074;2022-08-19T16:27:47;1.43;;;1.33;;
19575;SDS011;41589;51.196;7.074;2022-08-19T16:32:48;1.77;;;1.20;;
19575;SDS011;41589;51.196;7.074;2022-08-19T16:37:48;1.70;;;1.60;;
19575;SDS011;41589;51.196;7.074;2022-08-19T16:42:48;2.23;;;2.13;;
19575;SDS011;41589;51.196;7.074;2022-08-19T16:47:49;1.63;;;1.53;;
19575;SDS011;41589;51.196;7.074;2022-08-19T16:52:49;2.10;;;1.90;;
19575;SDS011;41589;51.196;7.074;2022-08-19T16:57:50;2.30;;;1.80;;
19575;SDS011;41589;51.196;7.074;2022-08-19T17:02:50;1.87;;;1.30;;
19575;SDS011;41589;51.196;7.074;2022-08-19T17:07:51;2.03;;;1.50;;
19575;SDS011;41589;51.196;7.074;2022-08-19T17:12:51;1.97;;;1.40;;
19575;SDS011;41589;51.196;7.074;2022-08-19T17:17:57;1.50;;;1.50;;
19575;SDS011;41589;51.196;7.074;2022-08-19T17:22:59;2.87;;;1.60;;
19575;SDS011;41589;51.196;7.074;2022-08-19T17:28:09;1.90;;;1.33;;
19575;SDS011;41589;51.196;7.074;2022-08-19T17:33:15;1.77;;;1.67;;
19575;SDS011;41589;51.196;7.074;2022-08-19T17:38:17;4.90;;;4.50;;
19575;SDS011;41589;51.196;7.074;2022-08-19T17:43:20;2.40;;;2.20;;
19575;SDS011;41589;51.196;7.074;2022-08-19T17:48:20;1.73;;;1.63;;
19575;SDS011;41589;51.196;7.074;2022-08-19T17:53:23;1.77;;;1.67;;
19575;SDS011;41589;51.196;7.074;2022-08-19T17:58:23;1.47;;;1.37;;
19575;SDS011;41589;51.196;7.074;2022-08-19T18:03:25;1.60;;;1.50;;
19575;SDS011;41589;51.196;7.074;2022-08-19T18:08:29;1.97;;;1.87;;
19575;SDS011;41589;51.196;7.074;2022-08-19T18:13:30;2.00;;;1.90;;
19575;SDS011;41589;51.196;7.074;2022-08-19T18:18:30;2.10;;;1.83;;
19575;SDS011;41589;51.196;7.074;2022-08-19T18:23:30;1.90;;;1.80;;
19575;SDS011;41589;51.196;7.074;2022-08-19T18:28:32;2.67;;;2.47;;
19575;SDS011;41589;51.196;7.074;2022-08-19T18:33:33;1.80;;;1.70;;
19575;SDS011;41589;51.196;7.074;2022-08-19T18:38:33;2.27;;;2.07;;
19575;SDS011;41589;51.196;7.074;2022-08-19T18:43:52;2.40;;;2.20;;
19575;SDS011;41589;51.196;7.074;2022-08-19T18:49:13;2.13;;;2.03;;
19575;SDS011;41589;51.196;7.074;2022-08-19T18:54:17;2.27;;;2.00;;
19575;SDS011;41589;51.196;7.074;2022-08-19T18:59:18;3.07;;;2.87;;
19575;SDS011;41589;51.196;7.074;2022-08-19T19:04:21;2.87;;;2.67;;
19575;SDS011;41589;51.196;7.074;2022-08-19T19:09:25;2.60;;;2.43;;
19575;SDS011;41589;51.196;7.074;2022-08-19T19:14:27;2.20;;;2.10;;
19575;SDS011;41589;51.196;7.074;2022-08-19T19:19:32;2.33;;;2.23;;
19575;SDS011;41589;51.196;7.074;2022-08-19T19:24:33;2.50;;;2.30;;
19575;SDS011;41589;51.196;7.074;2022-08-19T19:29:36;2.27;;;2.17;;
19575;SDS011;41589;51.196;7.074;2022-08-19T19:34:37;2.17;;;1.70;;
19575;SDS011;41589;51.196;7.074;2022-08-19T19:39:38;1.97;;;1.83;;
19575;SDS011;41589;51.196;7.074;2022-08-19T19:44:39;1.97;;;1.87;;
19575;SDS011;41589;51.196;7.074;2022-08-19T19:49:41;2.07;;;1.97;;
19575;SDS011;41589;51.196;7.074;2022-08-19T19:54:41;1.57;;;1.47;;
19575;SDS011;41589;51.196;7.074;2022-08-19T19:59:42;2.00;;;1.90;;
19575;SDS011;41589;51.196;7.074;2022-08-19T20:04:43;1.87;;;1.77;;
19575;SDS011;41589;51.196;7.074;2022-08-19T20:09:44;2.20;;;2.10;;
19575;SDS011;41589;51.196;7.074;2022-08-19T20:14:44;2.43;;;2.27;;
19575;SDS011;41589;51.196;7.074;2022-08-19T20:19:44;2.17;;;2.07;;
19575;SDS011;41589;51.196;7.074;2022-08-19T20:24:46;1.90;;;1.80;;
19575;SDS011;41589;51.196;7.074;2022-08-19T20:29:47;1.60;;;1.50;;
19575;SDS011;41589;51.196;7.074;2022-08-19T20:34:47;1.70;;;1.60;;
19575;SDS011;41589;51.196;7.074;2022-08-19T20:39:48;1.77;;;1.60;;
19575;SDS011;41589;51.196;7.074;2022-08-19T20:44:49;2.40;;;2.20;;
19575;SDS011;41589;51.196;7.074;2022-08-19T20:49:50;1.60;;;1.50;;
19575;SDS011;41589;51.196;7.074;2022-08-19T20:54:53;1.77;;;1.67;;
19575;SDS011;41589;51.196;7.074;2022-08-19T20:59:53;2.00;;;1.90;;
19575;SDS011;41589;51.196;7.074;2022-08-19T21:04:53;2.37;;;2.27;;
19575;SDS011;41589;51.196;7.074;2022-08-19T21:09:54;2.50;;;2.33;;
19575;SDS011;41589;51.196;7.074;2022-08-19T21:14:54;1.50;;;1.40;;
19575;SDS011;41589;51.196;7.074;2022-08-19T21:19:55;1.47;;;1.37;;
19575;SDS011;41589;51.196;7.074;2022-08-19T21:24:55;1.27;;;1.27;;
19575;SDS011;41589;51.196;7.074;2022-08-19T21:29:55;1.40;;;1.30;;
19575;SDS011;41589;51.196;7.074;2022-08-19T21:34:56;1.30;;;1.20;;
19575;SDS011;41589;51.196;7.074;2022-08-19T21:39:56;1.13;;;1.13;;
19575;SDS011;41589;51.196;7.074;2022-08-19T21:44:57;1.30;;;1.20;;
19575;SDS011;41589;51.196;7.074;2022-08-19T21:49:57;1.30;;;1.20;;
19575;SDS011;41589;51.196;7.074;2022-08-19T21:54:57;1.00;;;1.00;;
19575;SDS011;41589;51.196;7.074;2022-08-19T21:59:58;1.20;;;1.10;;
19575;SDS011;41589;51.196;7.074;2022-08-19T22:04:58;1.30;;;1.20;;
19575;SDS011;41589;51.196;7.074;2022-08-19T22:09:59;1.20;;;1.10;;
19575;SDS011;41589;51.196;7.074;2022-08-19T22:14:59;2.33;;;1.23;;
19575;SDS011;41589;51.196;7.074;2022-08-19T22:20:00;1.00;;;1.00;;
19575;SDS011;41589;51.196;7.074;2022-08-19T22:25:06;2.43;;;1.20;;
19575;SDS011;41589;51.196;7.074;2022-08-19T22:30:10;1.17;;;1.17;;
19575;SDS011;41589;51.196;7.074;2022-08-19T22:35:14;0.70;;;0.70;;
19575;SDS011;41589;51.196;7.074;2022-08-19T22:40:16;0.93;;;0.90;;
19575;SDS011;41589;51.196;7.074;2022-08-19T22:45:18;1.50;;;1.10;;
19575;SDS011;41589;51.196;7.074;2022-08-19T22:50:19;0.83;;;0.83;;
19575;SDS011;41589;51.196;7.074;2022-08-19T22:55:19;1.20;;;1.20;;
19575;SDS011;41589;51.196;7.074;2022-08-19T23:00:23;1.00;;;1.00;;
19575;SDS011;41589;51.196;7.074;2022-08-19T23:05:27;1.37;;;1.30;;
19575;SDS011;41589;51.196;7.074;2022-08-19T23:10:28;2.00;;;1.83;;
19575;SDS011;41589;51.196;7.074;2022-08-19T23:15:29;1.97;;;1.80;;
19575;SDS011;41589;51.196;7.074;2022-08-19T23:20:32;2.00;;;1.90;;
19575;SDS011;41589;51.196;7.074;2022-08-19T23:25:35;2.10;;;2.00;;
19575;SDS011;41589;51.196;7.074;2022-08-19T23:30:39;2.60;;;2.40;;
19575;SDS011;41589;51.196;7.074;2022-08-19T23:35:42;3.53;;;2.13;;
19575;SDS011;41589;51.196;7.074;2022-08-19T23:40:43;2.20;;;2.10;;
19575;SDS011;41589;51.196;7.074;2022-08-19T23:45:44;2.17;;;2.07;;
19575;SDS011;41589;51.196;7.074;2022-08-19T23:50:45;2.80;;;2.60;;
19575;SDS011;41589;51.196;7.074;2022-08-19T23:55:46;2.40;;;2.20;;
